sensor_id;sensor_type;location;lat;lon;timestamp;P1;durP1;ratioP1;P2;durP2;ratioP2
39882;SDS011;55824;52.220;21.040;2023-01-16T00:01:51;5.93;;;3.25;;
39882;SDS011;55824;52.220;21.040;2023-01-16T00:04:17;4.53;;;2.90;;
39882;SDS011;55824;52.220;21.040;2023-01-16T00:06:43;4.55;;;2.63;;
39882;SDS011;55824;52.220;21.040;2023-01-16T00:09:09;4.65;;;2.63;;
39882;SDS011;55824;52.220;21.040;2023-01-16T00:11:35;4.05;;;2.60;;
39882;SDS011;55824;52.220;21.040;2023-01-16T00:14:01;4.47;;;2.50;;
39882;SDS011;55824;52.220;21.040;2023-01-16T00:16:27;4.05;;;2.65;;
39882;SDS011;55824;52.220;21.040;2023-01-16T00:18:53;3.20;;;2.38;;
39882;SDS011;55824;52.220;21.040;2023-01-16T00:21:19;3.90;;;2.60;;
39882;SDS011;55824;52.220;21.040;2023-01-16T00:23:46;4.80;;;3.05;;
39882;SDS011;55824;52.220;21.040;2023-01-16T00:26:12;4.57;;;2.80;;
39882;SDS011;55824;52.220;21.040;2023-01-16T00:28:38;4.47;;;2.53;;
39882;SDS011;55824;52.220;21.040;2023-01-16T00:31:05;4.13;;;2.45;;
39882;SDS011;55824;52.220;21.040;2023-01-16T00:33:31;4.25;;;2.40;;
39882;SDS011;55824;52.220;21.040;2023-01-16T00:35:57;5.82;;;3.35;;
39882;SDS011;55824;52.220;21.040;2023-01-16T00:38:23;3.90;;;2.72;;
39882;SDS011;55824;52.220;21.040;2023-01-16T00:40:49;3.92;;;2.55;;
39882;SDS011;55824;52.220;21.040;2023-01-16T00:43:15;4.15;;;2.60;;
39882;SDS011;55824;52.220;21.040;2023-01-16T00:45:41;3.33;;;2.50;;
39882;SDS011;55824;52.220;21.040;2023-01-16T00:48:08;4.80;;;2.80;;
39882;SDS011;55824;52.220;21.040;2023-01-16T00:50:34;4.10;;;2.25;;
39882;SDS011;55824;52.220;21.040;2023-01-16T00:53:00;4.00;;;2.55;;
39882;SDS011;55824;52.220;21.040;2023-01-16T00:55:26;3.83;;;2.65;;
39882;SDS011;55824;52.220;21.040;2023-01-16T00:57:52;4.63;;;2.95;;
39882;SDS011;55824;52.220;21.040;2023-01-16T01:00:18;4.22;;;2.50;;
39882;SDS011;55824;52.220;21.040;2023-01-16T01:02:46;3.72;;;2.58;;
39882;SDS011;55824;52.220;21.040;2023-01-16T01:05:12;4.38;;;2.60;;
39882;SDS011;55824;52.220;21.040;2023-01-16T01:07:38;3.97;;;2.42;;
39882;SDS011;55824;52.220;21.040;2023-01-16T01:10:04;4.35;;;2.53;;
39882;SDS011;55824;52.220;21.040;2023-01-16T01:12:30;4.10;;;2.45;;
39882;SDS011;55824;52.220;21.040;2023-01-16T01:14:56;4.40;;;2.47;;
39882;SDS011;55824;52.220;21.040;2023-01-16T01:17:22;3.80;;;2.58;;
39882;SDS011;55824;52.220;21.040;2023-01-16T01:19:48;3.20;;;2.33;;
39882;SDS011;55824;52.220;21.040;2023-01-16T01:22:14;4.53;;;2.88;;
39882;SDS011;55824;52.220;21.040;2023-01-16T01:24:46;4.18;;;2.83;;
39882;SDS011;55824;52.220;21.040;2023-01-16T01:27:12;4.60;;;2.80;;
39882;SDS011;55824;52.220;21.040;2023-01-16T01:29:38;3.60;;;2.40;;
39882;SDS011;55824;52.220;21.040;2023-01-16T01:32:04;5.32;;;3.00;;
39882;SDS011;55824;52.220;21.040;2023-01-16T01:34:31;3.40;;;2.40;;
39882;SDS011;55824;52.220;21.040;2023-01-16T01:36:59;5.57;;;3.03;;
39882;SDS011;55824;52.220;21.040;2023-01-16T01:39:25;3.67;;;2.50;;
39882;SDS011;55824;52.220;21.040;2023-01-16T01:41:51;4.85;;;2.40;;
39882;SDS011;55824;52.220;21.040;2023-01-16T01:47:08;4.35;;;2.60;;
39882;SDS011;55824;52.220;21.040;2023-01-16T01:49:35;3.65;;;2.20;;
39882;SDS011;55824;52.220;21.040;2023-01-16T01:52:02;5.75;;;2.30;;
39882;SDS011;55824;52.220;21.040;2023-01-16T01:54:30;5.53;;;2.50;;
39882;SDS011;55824;52.220;21.040;2023-01-16T01:57:02;3.95;;;2.05;;
39882;SDS011;55824;52.220;21.040;2023-01-16T01:59:32;4.25;;;2.38;;
39882;SDS011;55824;52.220;21.040;2023-01-16T02:01:59;3.65;;;2.17;;
39882;SDS011;55824;52.220;21.040;2023-01-16T02:04:28;3.97;;;2.38;;
39882;SDS011;55824;52.220;21.040;2023-01-16T02:06:57;5.57;;;2.72;;
39882;SDS011;55824;52.220;21.040;2023-01-16T02:09:23;5.50;;;2.58;;
39882;SDS011;55824;52.220;21.040;2023-01-16T02:11:54;2.42;;;1.85;;
39882;SDS011;55824;52.220;21.040;2023-01-16T02:14:20;4.15;;;2.30;;
39882;SDS011;55824;52.220;21.040;2023-01-16T02:16:48;4.53;;;2.45;;
39882;SDS011;55824;52.220;21.040;2023-01-16T02:30:01;3.97;;;2.08;;
39882;SDS011;55824;52.220;21.040;2023-01-16T02:35:16;3.70;;;2.40;;
39882;SDS011;55824;52.220;21.040;2023-01-16T02:37:49;3.50;;;2.33;;
39882;SDS011;55824;52.220;21.040;2023-01-16T02:47:53;3.33;;;2.30;;
39882;SDS011;55824;52.220;21.040;2023-01-16T02:50:29;3.28;;;2.08;;
39882;SDS011;55824;52.220;21.040;2023-01-16T02:52:59;3.08;;;1.85;;
39882;SDS011;55824;52.220;21.040;2023-01-16T02:57:56;3.13;;;2.10;;
39882;SDS011;55824;52.220;21.040;2023-01-16T03:00:23;6.07;;;2.25;;
39882;SDS011;55824;52.220;21.040;2023-01-16T03:02:49;3.30;;;1.92;;
39882;SDS011;55824;52.220;21.040;2023-01-16T03:05:15;4.05;;;2.13;;
39882;SDS011;55824;52.220;21.040;2023-01-16T03:10:12;3.28;;;2.15;;
39882;SDS011;55824;52.220;21.040;2023-01-16T03:22:57;4.47;;;2.28;;
39882;SDS011;55824;52.220;21.040;2023-01-16T03:28:07;2.65;;;2.10;;
39882;SDS011;55824;52.220;21.040;2023-01-16T03:30:38;2.80;;;2.00;;
39882;SDS011;55824;52.220;21.040;2023-01-16T03:33:16;3.33;;;2.10;;
39882;SDS011;55824;52.220;21.040;2023-01-16T03:35:54;3.25;;;2.17;;
39882;SDS011;55824;52.220;21.040;2023-01-16T03:38:21;2.88;;;1.83;;
39882;SDS011;55824;52.220;21.040;2023-01-16T03:40:49;4.05;;;2.25;;
39882;SDS011;55824;52.220;21.040;2023-01-16T03:48:36;3.45;;;2.15;;
39882;SDS011;55824;52.220;21.040;2023-01-16T03:51:01;3.70;;;2.08;;
39882;SDS011;55824;52.220;21.040;2023-01-16T03:53:32;3.80;;;2.25;;
39882;SDS011;55824;52.220;21.040;2023-01-16T03:58:28;3.23;;;2.00;;
39882;SDS011;55824;52.220;21.040;2023-01-16T04:01:04;3.45;;;2.20;;
39882;SDS011;55824;52.220;21.040;2023-01-16T04:03:54;2.88;;;2.00;;
39882;SDS011;55824;52.220;21.040;2023-01-16T04:06:29;2.95;;;2.03;;
39882;SDS011;55824;52.220;21.040;2023-01-16T04:08:57;2.53;;;1.85;;
39882;SDS011;55824;52.220;21.040;2023-01-16T04:11:24;3.53;;;2.08;;
39882;SDS011;55824;52.220;21.040;2023-01-16T04:13:52;3.70;;;2.03;;
39882;SDS011;55824;52.220;21.040;2023-01-16T04:16:18;3.30;;;1.88;;
39882;SDS011;55824;52.220;21.040;2023-01-16T04:18:45;3.88;;;2.28;;
39882;SDS011;55824;52.220;21.040;2023-01-16T04:21:11;3.22;;;2.20;;
39882;SDS011;55824;52.220;21.040;2023-01-16T04:23:37;3.15;;;2.15;;
39882;SDS011;55824;52.220;21.040;2023-01-16T04:26:03;2.70;;;1.83;;
39882;SDS011;55824;52.220;21.040;2023-01-16T04:28:29;3.15;;;2.00;;
39882;SDS011;55824;52.220;21.040;2023-01-16T04:30:56;3.55;;;2.10;;
39882;SDS011;55824;52.220;21.040;2023-01-16T04:33:22;3.95;;;2.05;;
39882;SDS011;55824;52.220;21.040;2023-01-16T04:35:48;3.63;;;2.20;;
39882;SDS011;55824;52.220;21.040;2023-01-16T04:38:14;3.10;;;2.20;;
39882;SDS011;55824;52.220;21.040;2023-01-16T04:40:40;4.60;;;2.03;;
39882;SDS011;55824;52.220;21.040;2023-01-16T04:43:06;3.30;;;1.92;;
39882;SDS011;55824;52.220;21.040;2023-01-16T04:45:32;2.53;;;1.80;;
39882;SDS011;55824;52.220;21.040;2023-01-16T04:47:58;6.10;;;2.13;;
39882;SDS011;55824;52.220;21.040;2023-01-16T04:50:24;3.17;;;2.38;;
39882;SDS011;55824;52.220;21.040;2023-01-16T04:52:50;4.13;;;2.08;;
39882;SDS011;55824;52.220;21.040;2023-01-16T04:55:16;3.95;;;2.10;;
39882;SDS011;55824;52.220;21.040;2023-01-16T04:57:42;4.15;;;2.30;;
39882;SDS011;55824;52.220;21.040;2023-01-16T05:00:10;2.83;;;1.95;;
39882;SDS011;55824;52.220;21.040;2023-01-16T05:02:37;2.67;;;1.73;;
39882;SDS011;55824;52.220;21.040;2023-01-16T05:05:03;2.55;;;1.63;;
39882;SDS011;55824;52.220;21.040;2023-01-16T05:07:29;2.60;;;1.90;;
39882;SDS011;55824;52.220;21.040;2023-01-16T05:09:55;2.83;;;1.80;;
39882;SDS011;55824;52.220;21.040;2023-01-16T05:12:21;3.25;;;1.90;;
39882;SDS011;55824;52.220;21.040;2023-01-16T05:14:47;4.45;;;2.10;;
39882;SDS011;55824;52.220;21.040;2023-01-16T05:17:13;2.92;;;1.80;;
39882;SDS011;55824;52.220;21.040;2023-01-16T05:19:39;3.50;;;2.40;;
39882;SDS011;55824;52.220;21.040;2023-01-16T05:22:05;3.20;;;2.00;;
39882;SDS011;55824;52.220;21.040;2023-01-16T05:24:30;2.95;;;1.70;;
39882;SDS011;55824;52.220;21.040;2023-01-16T05:26:56;3.83;;;2.20;;
39882;SDS011;55824;52.220;21.040;2023-01-16T05:29:22;3.40;;;2.20;;
39882;SDS011;55824;52.220;21.040;2023-01-16T05:31:48;10.00;;;2.22;;
39882;SDS011;55824;52.220;21.040;2023-01-16T05:34:14;4.38;;;2.13;;
39882;SDS011;55824;52.220;21.040;2023-01-16T05:36:40;3.90;;;1.85;;
39882;SDS011;55824;52.220;21.040;2023-01-16T05:39:06;5.40;;;1.92;;
39882;SDS011;55824;52.220;21.040;2023-01-16T05:41:32;3.63;;;2.03;;
39882;SDS011;55824;52.220;21.040;2023-01-16T05:43:58;2.75;;;2.05;;
39882;SDS011;55824;52.220;21.040;2023-01-16T05:46:24;7.82;;;2.13;;
39882;SDS011;55824;52.220;21.040;2023-01-16T05:48:50;3.10;;;1.77;;
39882;SDS011;55824;52.220;21.040;2023-01-16T05:51:16;2.67;;;1.85;;
39882;SDS011;55824;52.220;21.040;2023-01-16T05:53:42;3.72;;;2.17;;
39882;SDS011;55824;52.220;21.040;2023-01-16T05:56:09;3.47;;;2.15;;
39882;SDS011;55824;52.220;21.040;2023-01-16T05:58:36;3.28;;;1.70;;
39882;SDS011;55824;52.220;21.040;2023-01-16T06:01:02;2.88;;;2.00;;
39882;SDS011;55824;52.220;21.040;2023-01-16T06:03:28;3.20;;;2.15;;
39882;SDS011;55824;52.220;21.040;2023-01-16T06:05:54;3.25;;;2.00;;
39882;SDS011;55824;52.220;21.040;2023-01-16T06:08:20;3.50;;;2.10;;
39882;SDS011;55824;52.220;21.040;2023-01-16T06:10:46;3.95;;;2.25;;
39882;SDS011;55824;52.220;21.040;2023-01-16T06:13:13;4.78;;;2.50;;
39882;SDS011;55824;52.220;21.040;2023-01-16T06:15:39;5.82;;;3.15;;
39882;SDS011;55824;52.220;21.040;2023-01-16T06:18:05;38.60;;;27.40;;
39882;SDS011;55824;52.220;21.040;2023-01-16T06:20:31;26.58;;;12.95;;
39882;SDS011;55824;52.220;21.040;2023-01-16T06:22:57;12.60;;;6.85;;
39882;SDS011;55824;52.220;21.040;2023-01-16T06:25:23;13.68;;;6.43;;
39882;SDS011;55824;52.220;21.040;2023-01-16T06:27:49;12.07;;;6.32;;
39882;SDS011;55824;52.220;21.040;2023-01-16T06:30:15;15.95;;;8.38;;
39882;SDS011;55824;52.220;21.040;2023-01-16T06:32:42;13.45;;;7.32;;
39882;SDS011;55824;52.220;21.040;2023-01-16T06:35:08;19.23;;;5.93;;
39882;SDS011;55824;52.220;21.040;2023-01-16T06:37:34;12.88;;;7.05;;
39882;SDS011;55824;52.220;21.040;2023-01-16T06:40:00;14.43;;;5.53;;
39882;SDS011;55824;52.220;21.040;2023-01-16T06:42:26;11.13;;;5.50;;
39882;SDS011;55824;52.220;21.040;2023-01-16T06:44:52;8.77;;;4.90;;
39882;SDS011;55824;52.220;21.040;2023-01-16T06:47:18;11.00;;;5.43;;
39882;SDS011;55824;52.220;21.040;2023-01-16T06:49:45;8.57;;;4.43;;
39882;SDS011;55824;52.220;21.040;2023-01-16T06:52:11;11.70;;;5.57;;
39882;SDS011;55824;52.220;21.040;2023-01-16T06:54:37;9.98;;;4.40;;
39882;SDS011;55824;52.220;21.040;2023-01-16T06:57:03;10.95;;;5.20;;
39882;SDS011;55824;52.220;21.040;2023-01-16T06:59:29;8.15;;;4.32;;
39882;SDS011;55824;52.220;21.040;2023-01-16T07:01:55;8.82;;;4.15;;
39882;SDS011;55824;52.220;21.040;2023-01-16T07:04:21;9.85;;;4.15;;
39882;SDS011;55824;52.220;21.040;2023-01-16T07:06:48;14.55;;;4.03;;
39882;SDS011;55824;52.220;21.040;2023-01-16T07:09:15;9.68;;;3.80;;
39882;SDS011;55824;52.220;21.040;2023-01-16T07:11:42;13.02;;;4.22;;
39882;SDS011;55824;52.220;21.040;2023-01-16T07:14:08;9.35;;;4.53;;
39882;SDS011;55824;52.220;21.040;2023-01-16T07:16:53;10.18;;;3.88;;
39882;SDS011;55824;52.220;21.040;2023-01-16T07:19:37;9.80;;;3.92;;
39882;SDS011;55824;52.220;21.040;2023-01-16T07:22:22;9.02;;;3.80;;
39882;SDS011;55824;52.220;21.040;2023-01-16T07:25:05;10.35;;;4.05;;
39882;SDS011;55824;52.220;21.040;2023-01-16T07:27:31;6.93;;;3.20;;
39882;SDS011;55824;52.220;21.040;2023-01-16T07:29:57;8.52;;;3.30;;
39882;SDS011;55824;52.220;21.040;2023-01-16T07:32:23;8.88;;;3.88;;
39882;SDS011;55824;52.220;21.040;2023-01-16T07:34:49;8.95;;;2.92;;
39882;SDS011;55824;52.220;21.040;2023-01-16T07:37:15;7.93;;;3.55;;
39882;SDS011;55824;52.220;21.040;2023-01-16T07:39:41;5.85;;;3.20;;
39882;SDS011;55824;52.220;21.040;2023-01-16T07:42:07;9.27;;;3.45;;
39882;SDS011;55824;52.220;21.040;2023-01-16T07:44:33;6.82;;;3.10;;
39882;SDS011;55824;52.220;21.040;2023-01-16T07:47:00;5.82;;;2.80;;
39882;SDS011;55824;52.220;21.040;2023-01-16T07:49:26;5.78;;;2.88;;
39882;SDS011;55824;52.220;21.040;2023-01-16T07:51:52;8.60;;;3.13;;
39882;SDS011;55824;52.220;21.040;2023-01-16T07:54:18;4.45;;;3.20;;
39882;SDS011;55824;52.220;21.040;2023-01-16T07:56:46;6.03;;;2.65;;
39882;SDS011;55824;52.220;21.040;2023-01-16T07:59:12;9.60;;;3.42;;
39882;SDS011;55824;52.220;21.040;2023-01-16T08:01:38;5.63;;;3.30;;
39882;SDS011;55824;52.220;21.040;2023-01-16T08:04:04;6.45;;;2.95;;
39882;SDS011;55824;52.220;21.040;2023-01-16T08:06:30;6.15;;;2.85;;
39882;SDS011;55824;52.220;21.040;2023-01-16T08:08:56;5.60;;;2.90;;
39882;SDS011;55824;52.220;21.040;2023-01-16T08:11:22;4.57;;;2.70;;
39882;SDS011;55824;52.220;21.040;2023-01-16T08:14:00;7.13;;;2.40;;
39882;SDS011;55824;52.220;21.040;2023-01-16T08:16:26;3.75;;;2.25;;
39882;SDS011;55824;52.220;21.040;2023-01-16T08:18:52;5.57;;;3.30;;
39882;SDS011;55824;52.220;21.040;2023-01-16T08:21:18;5.00;;;2.80;;
39882;SDS011;55824;52.220;21.040;2023-01-16T08:23:45;5.70;;;2.80;;
39882;SDS011;55824;52.220;21.040;2023-01-16T08:26:11;6.40;;;3.15;;
39882;SDS011;55824;52.220;21.040;2023-01-16T08:28:38;5.32;;;2.78;;
39882;SDS011;55824;52.220;21.040;2023-01-16T08:31:08;5.55;;;2.65;;
39882;SDS011;55824;52.220;21.040;2023-01-16T08:33:36;4.43;;;2.47;;
39882;SDS011;55824;52.220;21.040;2023-01-16T08:36:03;4.28;;;2.67;;
39882;SDS011;55824;52.220;21.040;2023-01-16T08:38:29;4.68;;;2.60;;
39882;SDS011;55824;52.220;21.040;2023-01-16T08:40:55;4.60;;;2.42;;
39882;SDS011;55824;52.220;21.040;2023-01-16T08:43:21;5.63;;;2.70;;
39882;SDS011;55824;52.220;21.040;2023-01-16T08:46:10;5.30;;;2.72;;
39882;SDS011;55824;52.220;21.040;2023-01-16T08:49:00;5.82;;;2.50;;
39882;SDS011;55824;52.220;21.040;2023-01-16T08:51:45;4.78;;;2.60;;
39882;SDS011;55824;52.220;21.040;2023-01-16T08:54:11;4.20;;;2.78;;
39882;SDS011;55824;52.220;21.040;2023-01-16T08:56:37;4.85;;;2.40;;
39882;SDS011;55824;52.220;21.040;2023-01-16T08:59:07;6.28;;;2.88;;
39882;SDS011;55824;52.220;21.040;2023-01-16T09:01:33;3.90;;;2.38;;
39882;SDS011;55824;52.220;21.040;2023-01-16T09:03:59;4.72;;;2.40;;
39882;SDS011;55824;52.220;21.040;2023-01-16T09:06:25;3.85;;;2.60;;
39882;SDS011;55824;52.220;21.040;2023-01-16T09:08:51;4.80;;;2.60;;
39882;SDS011;55824;52.220;21.040;2023-01-16T09:11:17;4.63;;;2.63;;
39882;SDS011;55824;52.220;21.040;2023-01-16T09:14:02;4.97;;;2.38;;
39882;SDS011;55824;52.220;21.040;2023-01-16T09:16:28;4.63;;;2.50;;
39882;SDS011;55824;52.220;21.040;2023-01-16T09:18:54;4.03;;;2.63;;
39882;SDS011;55824;52.220;21.040;2023-01-16T09:21:20;3.67;;;2.17;;
39882;SDS011;55824;52.220;21.040;2023-01-16T09:23:48;5.28;;;2.25;;
39882;SDS011;55824;52.220;21.040;2023-01-16T09:26:14;3.50;;;2.25;;
39882;SDS011;55824;52.220;21.040;2023-01-16T09:28:40;4.55;;;2.78;;
39882;SDS011;55824;52.220;21.040;2023-01-16T09:31:06;4.35;;;2.60;;
39882;SDS011;55824;52.220;21.040;2023-01-16T09:33:32;4.65;;;2.70;;
39882;SDS011;55824;52.220;21.040;2023-01-16T09:35:58;3.45;;;2.25;;
39882;SDS011;55824;52.220;21.040;2023-01-16T09:38:24;5.35;;;2.67;;
39882;SDS011;55824;52.220;21.040;2023-01-16T09:40:54;4.15;;;2.40;;
39882;SDS011;55824;52.220;21.040;2023-01-16T09:46:09;4.57;;;2.50;;
39882;SDS011;55824;52.220;21.040;2023-01-16T09:48:38;3.90;;;2.40;;
39882;SDS011;55824;52.220;21.040;2023-01-16T09:51:06;5.32;;;2.80;;
39882;SDS011;55824;52.220;21.040;2023-01-16T09:53:37;4.50;;;2.53;;
39882;SDS011;55824;52.220;21.040;2023-01-16T09:56:24;3.53;;;2.47;;
39882;SDS011;55824;52.220;21.040;2023-01-16T09:59:25;4.10;;;2.20;;
39882;SDS011;55824;52.220;21.040;2023-01-16T10:02:38;4.53;;;2.40;;
39882;SDS011;55824;52.220;21.040;2023-01-16T10:04:39;3.35;;;2.00;;
39882;SDS011;55824;52.220;21.040;2023-01-16T10:07:23;4.55;;;2.38;;
39882;SDS011;55824;52.220;21.040;2023-01-16T10:10:14;4.03;;;2.55;;
39882;SDS011;55824;52.220;21.040;2023-01-16T10:12:41;3.90;;;2.30;;
39882;SDS011;55824;52.220;21.040;2023-01-16T10:30:46;4.07;;;2.30;;
39882;SDS011;55824;52.220;21.040;2023-01-16T10:33:18;6.07;;;2.92;;
39882;SDS011;55824;52.220;21.040;2023-01-16T10:35:48;5.43;;;2.40;;
39882;SDS011;55824;52.220;21.040;2023-01-16T10:40:41;5.18;;;2.95;;
39882;SDS011;55824;52.220;21.040;2023-01-16T10:43:13;4.07;;;2.40;;
39882;SDS011;55824;52.220;21.040;2023-01-16T10:46:06;4.07;;;2.40;;
39882;SDS011;55824;52.220;21.040;2023-01-16T10:48:55;3.33;;;2.15;;
39882;SDS011;55824;52.220;21.040;2023-01-16T10:51:40;4.07;;;2.42;;
39882;SDS011;55824;52.220;21.040;2023-01-16T10:54:06;4.55;;;2.78;;
39882;SDS011;55824;52.220;21.040;2023-01-16T10:56:32;4.30;;;2.60;;
39882;SDS011;55824;52.220;21.040;2023-01-16T10:59:02;4.57;;;2.30;;
39882;SDS011;55824;52.220;21.040;2023-01-16T11:01:28;4.35;;;2.35;;
39882;SDS011;55824;52.220;21.040;2023-01-16T11:04:00;3.60;;;2.35;;
39882;SDS011;55824;52.220;21.040;2023-01-16T11:06:27;3.65;;;2.33;;
39882;SDS011;55824;52.220;21.040;2023-01-16T11:08:54;4.00;;;2.40;;
39882;SDS011;55824;52.220;21.040;2023-01-16T11:11:25;4.22;;;2.60;;
39882;SDS011;55824;52.220;21.040;2023-01-16T11:14:11;5.15;;;2.88;;
39882;SDS011;55824;52.220;21.040;2023-01-16T11:16:56;5.07;;;3.38;;
39882;SDS011;55824;52.220;21.040;2023-01-16T11:19:55;4.45;;;2.45;;
39882;SDS011;55824;52.220;21.040;2023-01-16T11:22:24;3.72;;;2.45;;
39882;SDS011;55824;52.220;21.040;2023-01-16T11:24:57;4.05;;;2.88;;
39882;SDS011;55824;52.220;21.040;2023-01-16T11:27:26;4.13;;;2.55;;
39882;SDS011;55824;52.220;21.040;2023-01-16T11:29:53;4.63;;;2.97;;
39882;SDS011;55824;52.220;21.040;2023-01-16T11:32:20;3.90;;;2.65;;
39882;SDS011;55824;52.220;21.040;2023-01-16T11:34:50;6.65;;;2.95;;
39882;SDS011;55824;52.220;21.040;2023-01-16T11:37:18;4.85;;;3.00;;
39882;SDS011;55824;52.220;21.040;2023-01-16T11:39:46;4.22;;;2.70;;
39882;SDS011;55824;52.220;21.040;2023-01-16T11:42:13;4.03;;;2.67;;
39882;SDS011;55824;52.220;21.040;2023-01-16T11:44:58;5.50;;;2.75;;
39882;SDS011;55824;52.220;21.040;2023-01-16T11:47:44;4.75;;;2.95;;
39882;SDS011;55824;52.220;21.040;2023-01-16T11:50:27;4.55;;;2.97;;
39882;SDS011;55824;52.220;21.040;2023-01-16T11:52:53;4.60;;;3.20;;
39882;SDS011;55824;52.220;21.040;2023-01-16T11:55:19;3.92;;;2.63;;
39882;SDS011;55824;52.220;21.040;2023-01-16T11:58:00;4.78;;;3.22;;
39882;SDS011;55824;52.220;21.040;2023-01-16T12:00:32;4.15;;;2.70;;
39882;SDS011;55824;52.220;21.040;2023-01-16T12:05:41;4.63;;;2.83;;
39882;SDS011;55824;52.220;21.040;2023-01-16T12:13:21;4.43;;;3.22;;
39882;SDS011;55824;52.220;21.040;2023-01-16T12:16:21;5.35;;;3.03;;
39882;SDS011;55824;52.220;21.040;2023-01-16T12:30:05;4.35;;;3.00;;
39882;SDS011;55824;52.220;21.040;2023-01-16T12:42:45;5.35;;;3.30;;
39882;SDS011;55824;52.220;21.040;2023-01-16T12:45:44;4.25;;;2.90;;
39882;SDS011;55824;52.220;21.040;2023-01-16T12:50:44;5.55;;;3.00;;
39882;SDS011;55824;52.220;21.040;2023-01-16T12:58:19;5.07;;;3.33;;
39882;SDS011;55824;52.220;21.040;2023-01-16T13:01:06;5.13;;;3.10;;
39882;SDS011;55824;52.220;21.040;2023-01-16T13:03:45;4.63;;;3.10;;
39882;SDS011;55824;52.220;21.040;2023-01-16T13:06:15;4.93;;;3.13;;
39882;SDS011;55824;52.220;21.040;2023-01-16T13:08:44;5.68;;;3.25;;
39882;SDS011;55824;52.220;21.040;2023-01-16T13:11:16;4.18;;;3.00;;
39882;SDS011;55824;52.220;21.040;2023-01-16T13:14:04;5.60;;;3.13;;
39882;SDS011;55824;52.220;21.040;2023-01-16T13:16:32;4.35;;;3.20;;
39882;SDS011;55824;52.220;21.040;2023-01-16T13:19:02;4.57;;;3.15;;
39882;SDS011;55824;52.220;21.040;2023-01-16T13:21:30;4.70;;;3.20;;
39882;SDS011;55824;52.220;21.040;2023-01-16T13:24:01;4.70;;;3.30;;
39882;SDS011;55824;52.220;21.040;2023-01-16T13:26:29;5.43;;;3.05;;
39882;SDS011;55824;52.220;21.040;2023-01-16T13:33:52;4.70;;;3.37;;
39882;SDS011;55824;52.220;21.040;2023-01-16T13:42:00;5.18;;;3.03;;
39882;SDS011;55824;52.220;21.040;2023-01-16T13:44:32;4.70;;;3.20;;
39882;SDS011;55824;52.220;21.040;2023-01-16T13:47:19;5.85;;;3.30;;
39882;SDS011;55824;52.220;21.040;2023-01-16T13:49:52;4.65;;;3.05;;
39882;SDS011;55824;52.220;21.040;2023-01-16T13:52:20;5.57;;;3.30;;
39882;SDS011;55824;52.220;21.040;2023-01-16T13:54:47;5.03;;;3.20;;
39882;SDS011;55824;52.220;21.040;2023-01-16T13:57:17;6.65;;;2.85;;
39882;SDS011;55824;52.220;21.040;2023-01-16T13:59:46;4.40;;;3.00;;
39882;SDS011;55824;52.220;21.040;2023-01-16T14:02:18;4.97;;;3.70;;
39882;SDS011;55824;52.220;21.040;2023-01-16T14:05:13;5.82;;;3.42;;
39882;SDS011;55824;52.220;21.040;2023-01-16T14:10:43;4.40;;;3.00;;
39882;SDS011;55824;52.220;21.040;2023-01-16T14:13:14;5.97;;;3.83;;
39882;SDS011;55824;52.220;21.040;2023-01-16T14:15:46;4.70;;;3.35;;
39882;SDS011;55824;52.220;21.040;2023-01-16T14:18:35;4.60;;;3.47;;
39882;SDS011;55824;52.220;21.040;2023-01-16T14:21:02;3.90;;;3.25;;
39882;SDS011;55824;52.220;21.040;2023-01-16T14:23:29;5.07;;;3.40;;
39882;SDS011;55824;52.220;21.040;2023-01-16T14:26:30;5.32;;;3.40;;
39882;SDS011;55824;52.220;21.040;2023-01-16T14:28:58;3.90;;;2.83;;
39882;SDS011;55824;52.220;21.040;2023-01-16T14:32:27;4.88;;;3.33;;
39882;SDS011;55824;52.220;21.040;2023-01-16T14:34:34;4.95;;;3.35;;
39882;SDS011;55824;52.220;21.040;2023-01-16T14:37:05;7.25;;;3.40;;
39882;SDS011;55824;52.220;21.040;2023-01-16T14:39:32;5.38;;;3.50;;
39882;SDS011;55824;52.220;21.040;2023-01-16T14:42:01;4.88;;;3.55;;
39882;SDS011;55824;52.220;21.040;2023-01-16T14:45:09;4.50;;;2.90;;
39882;SDS011;55824;52.220;21.040;2023-01-16T14:50:54;4.90;;;3.40;;
39882;SDS011;55824;52.220;21.040;2023-01-16T14:53:39;6.22;;;3.30;;
39882;SDS011;55824;52.220;21.040;2023-01-16T14:58:52;5.47;;;3.80;;
39882;SDS011;55824;52.220;21.040;2023-01-16T15:01:26;5.27;;;3.47;;
39882;SDS011;55824;52.220;21.040;2023-01-16T15:04:13;5.22;;;3.47;;
39882;SDS011;55824;52.220;21.040;2023-01-16T15:06:48;4.90;;;3.50;;
39882;SDS011;55824;52.220;21.040;2023-01-16T15:09:15;4.20;;;3.28;;
39882;SDS011;55824;52.220;21.040;2023-01-16T15:12:02;4.93;;;3.47;;
39882;SDS011;55824;52.220;21.040;2023-01-16T15:14:28;4.72;;;3.53;;
39882;SDS011;55824;52.220;21.040;2023-01-16T15:17:14;4.55;;;3.55;;
39882;SDS011;55824;52.220;21.040;2023-01-16T15:20:01;6.45;;;4.05;;
39882;SDS011;55824;52.220;21.040;2023-01-16T15:22:50;5.60;;;4.05;;
39882;SDS011;55824;52.220;21.040;2023-01-16T15:25:23;5.28;;;3.72;;
39882;SDS011;55824;52.220;21.040;2023-01-16T15:27:53;5.53;;;3.90;;
39882;SDS011;55824;52.220;21.040;2023-01-16T15:30:21;4.65;;;3.65;;
39882;SDS011;55824;52.220;21.040;2023-01-16T15:35:20;6.70;;;3.70;;
39882;SDS011;55824;52.220;21.040;2023-01-16T15:37:53;5.32;;;3.75;;
39882;SDS011;55824;52.220;21.040;2023-01-16T15:40:27;6.05;;;4.15;;
39882;SDS011;55824;52.220;21.040;2023-01-16T15:42:54;5.57;;;3.60;;
39882;SDS011;55824;52.220;21.040;2023-01-16T15:46:15;5.97;;;3.85;;
39882;SDS011;55824;52.220;21.040;2023-01-16T15:49:13;6.20;;;4.03;;
39882;SDS011;55824;52.220;21.040;2023-01-16T15:51:36;6.00;;;4.20;;
39882;SDS011;55824;52.220;21.040;2023-01-16T15:54:02;5.00;;;3.80;;
39882;SDS011;55824;52.220;21.040;2023-01-16T15:56:38;6.53;;;4.20;;
39882;SDS011;55824;52.220;21.040;2023-01-16T16:02:24;5.25;;;3.72;;
39882;SDS011;55824;52.220;21.040;2023-01-16T16:04:54;6.45;;;4.03;;
39882;SDS011;55824;52.220;21.040;2023-01-16T16:07:21;5.63;;;3.92;;
39882;SDS011;55824;52.220;21.040;2023-01-16T16:09:48;5.55;;;4.10;;
39882;SDS011;55824;52.220;21.040;2023-01-16T16:12:16;4.88;;;3.90;;
39882;SDS011;55824;52.220;21.040;2023-01-16T16:14:43;6.05;;;4.15;;
39882;SDS011;55824;52.220;21.040;2023-01-16T16:17:32;5.00;;;3.92;;
39882;SDS011;55824;52.220;21.040;2023-01-16T16:22:52;5.75;;;4.13;;
39882;SDS011;55824;52.220;21.040;2023-01-16T16:25:30;5.72;;;4.22;;
39882;SDS011;55824;52.220;21.040;2023-01-16T16:27:57;6.13;;;4.63;;
39882;SDS011;55824;52.220;21.040;2023-01-16T16:30:27;6.20;;;4.50;;
39882;SDS011;55824;52.220;21.040;2023-01-16T16:32:54;5.57;;;4.28;;
39882;SDS011;55824;52.220;21.040;2023-01-16T16:35:26;6.25;;;4.85;;
39882;SDS011;55824;52.220;21.040;2023-01-16T16:37:53;5.68;;;4.65;;
39882;SDS011;55824;52.220;21.040;2023-01-16T16:40:19;10.70;;;4.60;;
39882;SDS011;55824;52.220;21.040;2023-01-16T16:45:13;11.07;;;5.00;;
39882;SDS011;55824;52.220;21.040;2023-01-16T16:47:44;7.18;;;4.45;;
39882;SDS011;55824;52.220;21.040;2023-01-16T16:52:46;6.75;;;4.70;;
39882;SDS011;55824;52.220;21.040;2023-01-16T16:55:29;7.68;;;5.07;;
39882;SDS011;55824;52.220;21.040;2023-01-16T16:58:00;6.90;;;4.43;;
39882;SDS011;55824;52.220;21.040;2023-01-16T17:00:27;9.18;;;4.63;;
39882;SDS011;55824;52.220;21.040;2023-01-16T17:02:56;6.85;;;4.63;;
39882;SDS011;55824;52.220;21.040;2023-01-16T17:07:49;8.43;;;5.15;;
39882;SDS011;55824;52.220;21.040;2023-01-16T17:10:16;5.68;;;4.30;;
39882;SDS011;55824;52.220;21.040;2023-01-16T17:12:42;6.85;;;4.30;;
39882;SDS011;55824;52.220;21.040;2023-01-16T17:15:08;10.82;;;4.82;;